Time;durP1;ratioP1;P1;durP2;ratioP2;P2;SDS_P1;SDS_P2;PMS_P1;PMS_P2;Temp;Humidity;BMP_temperature;BMP_pressure;BME280_temperature;BME280_humidity;BME280_pressure;Samples;Min_cycle;Max_cycle;Signal;HPM_P1;HPM_P2
2023/06/15 00:04:26;;;;;;;5.70;3.67;;;;;;;;;;10556593;28;20042;-75
2023/06/15 00:09:29;;;;;;;5.85;3.15;;;;;;;;;;10557555;28;20087;-75
2023/06/15 00:14:32;;;;;;;5.95;3.28;;;;;;;;;;10546058;28;20054;-75
2023/06/15 00:19:37;;;;;;;6.97;3.35;;;;;;;;;;10554579;28;20060;-76
2023/06/15 00:24:40;;;;;;;7.80;3.63;;;;;;;;;;10549913;28;20048;-75
2023/06/15 00:29:43;;;;;;;6.30;3.50;;;;;;;;;;10553138;28;20059;-75
2023/06/15 00:34:47;;;;;;;6.72;4.13;;;;;;;;;;10553931;28;20074;-76
2023/06/15 00:39:49;;;;;;;;;;;;;;;;;;10543131;28;20126;-74
2023/06/15 00:44:52;;;;;;;8.82;3.78;;;;;;;;;;10548494;28;19928;-76
2023/06/15 00:49:57;;;;;;;6.35;3.30;;;;;;;;;;10553433;28;20035;-75
2023/06/15 00:55:00;;;;;;;7.47;3.90;;;;;;;;;;10552607;28;20074;-75
2023/06/15 01:00:04;;;;;;;7.60;3.75;;;;;;;;;;10549236;28;20116;-76
2023/06/15 01:05:10;;;;;;;9.05;3.92;;;;;;;;;;10555612;28;20127;-76
2023/06/15 01:10:13;;;;;;;6.32;3.70;;;;;;;;;;10553361;28;20047;-75
2023/06/15 01:15:16;;;;;;;5.83;3.53;;;;;;;;;;10556069;28;20420;-76
2023/06/15 01:20:24;;;;;;;9.30;4.07;;;;;;;;;;10557614;28;20093;-76
2023/06/15 01:25:33;;;;;;;7.05;3.75;;;;;;;;;;10547167;28;20040;-75
2023/06/15 01:30:40;;;;;;;6.25;3.50;;;;;;;;;;10554306;28;20051;-74
2023/06/15 01:35:43;;;;;;;6.90;3.85;;;;;;;;;;10553319;28;20040;-74
2023/06/15 01:40:48;;;;;;;6.82;3.78;;;;;;;;;;10545912;28;20583;-76
2023/06/15 01:45:53;;;;;;;6.85;3.25;;;;;;;;;;10551083;28;20756;-75
2023/06/15 01:50:56;;;;;;;9.75;4.13;;;;;;;;;;10549761;28;20044;-75
2023/06/15 01:55:59;;;;;;;6.53;3.67;;;;;;;;;;10544389;28;20046;-75
2023/06/15 02:01:03;;;;;;;7.53;3.47;;;;;;;;;;10545437;28;20394;-75
2023/06/15 02:06:06;;;;;;;8.13;4.25;;;;;;;;;;10545712;28;20047;-74
2023/06/15 02:11:08;;;;;;;8.68;4.10;;;;;;;;;;10549914;28;20040;-76
2023/06/15 02:16:13;;;;;;;7.15;3.90;;;;;;;;;;10542866;28;20040;-75
2023/06/15 02:21:15;;;;;;;6.78;3.45;;;;;;;;;;10547617;28;20111;-75
2023/06/15 02:26:18;;;;;;;7.93;4.13;;;;;;;;;;10553875;28;20111;-74
2023/06/15 02:31:23;;;;;;;6.47;3.75;;;;;;;;;;10548745;28;20047;-74
2023/06/15 02:36:26;;;;;;;8.07;3.78;;;;;;;;;;10547635;28;20039;-75
2023/06/15 02:41:28;;;;;;;7.87;3.80;;;;;;;;;;10554692;28;20050;-74
2023/06/15 02:46:32;;;;;;;7.30;4.00;;;;;;;;;;10557113;28;20677;-73
2023/06/15 02:51:35;;;;;;;;;;;;;;;;;;10547538;28;20532;-74
2023/06/15 02:56:38;;;;;;;9.32;4.25;;;;;;;;;;10547261;28;19935;-75
2023/06/15 03:01:42;;;;;;;6.72;3.83;;;;;;;;;;10547421;28;20285;-76
2023/06/15 03:06:44;;;;;;;6.35;3.90;;;;;;;;;;10552900;28;20139;-73
2023/06/15 03:11:47;;;;;;;7.82;4.45;;;;;;;;;;10541169;28;20040;-75
2023/06/15 03:16:51;;;;;;;7.85;4.05;;;;;;;;;;10556585;28;20042;-76
2023/06/15 03:21:55;;;;;;;8.40;4.00;;;;;;;;;;10550234;28;20119;-74
2023/06/15 03:26:58;;;;;;;6.50;4.00;;;;;;;;;;10558374;28;20064;-74
2023/06/15 03:32:02;;;;;;;7.47;3.80;;;;;;;;;;10556385;28;20210;-74
2023/06/15 03:37:05;;;;;;;7.85;4.28;;;;;;;;;;10556058;28;20103;-74
2023/06/15 03:42:08;;;;;;;7.95;3.95;;;;;;;;;;10555081;28;20036;-75
2023/06/15 03:47:12;;;;;;;6.82;3.92;;;;;;;;;;10552309;28;20258;-76
2023/06/15 03:52:14;;;;;;;6.40;3.47;;;;;;;;;;10557433;28;20052;-75
2023/06/15 03:57:17;;;;;;;7.93;4.07;;;;;;;;;;10554946;28;20095;-75
2023/06/15 04:02:21;;;;;;;8.68;4.43;;;;;;;;;;10536365;28;20036;-75
2023/06/15 04:07:24;;;;;;;8.52;4.30;;;;;;;;;;10553595;28;20032;-75
2023/06/15 04:12:26;;;;;;;7.30;4.30;;;;;;;;;;10557719;28;20219;-74
2023/06/15 04:17:30;;;;;;;6.25;3.78;;;;;;;;;;10551479;28;20043;-74
2023/06/15 04:22:33;;;;;;;7.10;4.55;;;;;;;;;;10554356;28;20046;-74
2023/06/15 04:27:36;;;;;;;8.20;4.43;;;;;;;;;;10551827;28;20088;-74
2023/06/15 04:32:41;;;;;;;7.82;4.13;;;;;;;;;;10549955;28;20171;-75
2023/06/15 04:37:44;;;;;;;8.38;4.10;;;;;;;;;;10553589;28;20050;-74
2023/06/15 04:42:47;;;;;;;7.65;4.45;;;;;;;;;;10548516;28;20035;-75
2023/06/15 04:47:51;;;;;;;7.38;4.18;;;;;;;;;;10550027;28;20054;-74
2023/06/15 04:52:55;;;;;;;7.32;4.22;;;;;;;;;;10554844;28;20062;-75
2023/06/15 04:57:57;;;;;;;8.00;4.73;;;;;;;;;;10554476;28;20521;-75
2023/06/15 05:03:02;;;;;;;7.67;4.43;;;;;;;;;;10534229;28;20095;-75
2023/06/15 05:08:05;;;;;;;8.10;4.25;;;;;;;;;;10553298;28;20055;-75
2023/06/15 05:13:07;;;;;;;8.77;4.30;;;;;;;;;;10552001;28;20059;-75
2023/06/15 05:18:11;;;;;;;7.38;3.78;;;;;;;;;;10545610;28;20043;-74
2023/06/15 05:23:14;;;;;;;8.25;4.15;;;;;;;;;;10534219;28;20286;-75
2023/06/15 05:28:19;;;;;;;6.25;3.90;;;;;;;;;;10551234;28;20032;-76
2023/06/15 05:33:22;;;;;;;8.38;4.43;;;;;;;;;;10550685;28;20040;-75
2023/06/15 05:38:26;;;;;;;6.15;4.25;;;;;;;;;;10549066;28;20039;-75
2023/06/15 05:43:28;;;;;;;7.80;4.37;;;;;;;;;;10548447;28;20036;-75
2023/06/15 05:48:33;;;;;;;8.20;4.40;;;;;;;;;;10550211;28;20033;-74
2023/06/15 05:53:35;;;;;;;7.72;4.15;;;;;;;;;;10548049;28;20040;-74
2023/06/15 05:58:38;;;;;;;9.65;4.50;;;;;;;;;;10550135;28;20063;-76
2023/06/15 06:03:43;;;;;;;4.50;2.97;;;;;;;;;;10528182;28;20127;-75
2023/06/15 06:08:47;;;;;;;6.95;3.70;;;;;;;;;;10548116;28;20038;-75
2023/06/15 06:13:49;;;;;;;6.80;3.08;;;;;;;;;;10550568;28;20060;-76
2023/06/15 06:18:53;;;;;;;12.07;4.80;;;;;;;;;;10556865;28;20075;-76
2023/06/15 06:23:56;;;;;;;10.02;4.72;;;;;;;;;;10549022;28;20040;-75
2023/06/15 06:28:59;;;;;;;9.20;4.78;;;;;;;;;;10549799;28;20083;-75
2023/06/15 06:34:04;;;;;;;8.82;4.60;;;;;;;;;;10551503;28;20071;-75
2023/06/15 06:39:07;;;;;;;9.68;4.65;;;;;;;;;;10548069;28;20123;-74
2023/06/15 06:44:10;;;;;;;6.63;3.47;;;;;;;;;;10555498;28;20051;-76
2023/06/15 06:49:14;;;;;;;7.77;4.50;;;;;;;;;;10557383;28;20159;-75
2023/06/15 06:54:16;;;;;;;8.10;4.13;;;;;;;;;;10553264;28;20058;-75
2023/06/15 06:59:19;;;;;;;8.43;4.75;;;;;;;;;;10551842;28;20056;-75
2023/06/15 07:04:43;;;;;;;8.40;4.60;;;;;;;;;;10547674;28;20040;-75
2023/06/15 07:09:46;;;;;;;9.27;4.78;;;;;;;;;;10549950;28;20111;-75
2023/06/15 07:14:49;;;;;;;7.28;4.30;;;;;;;;;;10551853;28;20052;-74
2023/06/15 07:19:53;;;;;;;7.57;4.13;;;;;;;;;;10549833;28;20107;-74
2023/06/15 07:24:56;;;;;;;9.25;4.68;;;;;;;;;;10549851;28;20044;-76
2023/06/15 07:29:59;;;;;;;7.93;4.30;;;;;;;;;;10550806;28;20319;-74
2023/06/15 07:35:03;;;;;;;11.65;4.60;;;;;;;;;;10549532;28;20036;-75
2023/06/15 07:40:07;;;;;;;10.13;5.07;;;;;;;;;;10552756;28;20043;-75
2023/06/15 07:45:10;;;;;;;6.88;4.20;;;;;;;;;;10549367;28;20046;-74
2023/06/15 07:50:14;;;;;;;7.63;4.05;;;;;;;;;;10554646;28;20048;-75
2023/06/15 07:55:17;;;;;;;9.07;4.60;;;;;;;;;;10555767;28;20055;-74
2023/06/15 08:00:21;;;;;;;9.50;4.00;;;;;;;;;;10555569;28;20111;-74
2023/06/15 08:05:25;;;;;;;7.47;4.70;;;;;;;;;;10554817;28;20420;-75
2023/06/15 08:10:29;;;;;;;5.72;4.03;;;;;;;;;;10550729;28;20369;-73
2023/06/15 08:15:32;;;;;;;6.65;4.38;;;;;;;;;;10546264;28;20070;-76
2023/06/15 08:20:36;;;;;;;8.43;4.43;;;;;;;;;;10542918;28;20036;-74
2023/06/15 08:25:39;;;;;;;7.93;4.30;;;;;;;;;;10551828;28;20067;-74
2023/06/15 08:30:42;;;;;;;5.95;4.30;;;;;;;;;;10547541;28;20206;-75
2023/06/15 08:35:46;;;;;;;5.03;4.13;;;;;;;;;;10551241;28;20123;-75
2023/06/15 08:40:49;;;;;;;6.18;4.70;;;;;;;;;;10548687;28;20064;-74
2023/06/15 08:45:56;;;;;;;9.13;4.20;;;;;;;;;;10549315;28;20051;-75
2023/06/15 08:51:00;;;;;;;5.40;3.88;;;;;;;;;;10545770;28;20115;-75
2023/06/15 08:56:03;;;;;;;7.03;3.97;;;;;;;;;;10547806;28;20054;-75
2023/06/15 09:01:06;;;;;;;5.70;4.30;;;;;;;;;;10547067;28;20040;-76
2023/06/15 09:06:11;;;;;;;6.88;4.22;;;;;;;;;;10547370;28;20037;-75
2023/06/15 09:11:14;;;;;;;7.35;4.18;;;;;;;;;;10549136;28;20074;-75
2023/06/15 09:16:17;;;;;;;6.68;4.28;;;;;;;;;;10549358;28;20039;-76
2023/06/15 09:21:22;;;;;;;5.65;4.40;;;;;;;;;;10555117;28;20046;-74
2023/06/15 09:26:25;;;;;;;5.47;4.10;;;;;;;;;;10550672;28;20055;-75
2023/06/15 09:31:30;;;;;;;4.57;4.15;;;;;;;;;;10550189;28;20119;-76
2023/06/15 09:36:38;;;;;;;5.05;4.10;;;;;;;;;;10545508;28;20097;-75
2023/06/15 09:41:51;;;;;;;5.30;4.40;;;;;;;;;;10548331;28;20051;-75
2023/06/15 09:46:57;;;;;;;5.57;4.53;;;;;;;;;;10547129;28;20043;-73
2023/06/15 09:52:04;;;;;;;4.15;3.75;;;;;;;;;;10545769;28;20063;-75
2023/06/15 09:57:07;;;;;;;3.95;3.58;;;;;;;;;;10543385;28;20105;-75
2023/06/15 10:02:11;;;;;;;5.85;3.50;;;;;;;;;;10542681;28;20040;-75
2023/06/15 10:07:18;;;;;;;5.07;3.00;;;;;;;;;;10546182;28;20043;-75
2023/06/15 10:12:23;;;;;;;8.48;3.90;;;;;;;;;;10544304;28;20116;-75
2023/06/15 10:17:30;;;;;;;6.45;4.10;;;;;;;;;;10545969;28;20046;-73
2023/06/15 10:22:35;;;;;;;6.07;4.45;;;;;;;;;;10542521;28;20234;-75
2023/06/15 10:27:38;;;;;;;6.70;4.90;;;;;;;;;;10529276;28;20043;-75
2023/06/15 10:32:43;;;;;;;7.93;4.68;;;;;;;;;;10528062;28;20063;-76
2023/06/15 10:37:50;;;;;;;8.35;4.40;;;;;;;;;;10539315;28;20051;-74
2023/06/15 10:42:56;;;;;;;10.00;4.85;;;;;;;;;;10546545;28;20200;-75
2023/06/15 10:47:59;;;;;;;6.85;4.38;;;;;;;;;;10547574;28;20107;-74
2023/06/15 10:53:03;;;;;;;7.72;4.07;;;;;;;;;;10545420;28;20058;-75
2023/06/15 10:58:15;;;;;;;7.85;3.85;;;;;;;;;;10536502;28;20115;-75
2023/06/15 11:03:25;;;;;;;6.28;4.18;;;;;;;;;;10545233;28;20028;-74
2023/06/15 11:08:30;;;;;;;5.85;3.80;;;;;;;;;;10542486;28;20459;-74
2023/06/15 11:13:33;;;;;;;8.00;4.10;;;;;;;;;;10549489;28;21107;-74
2023/06/15 11:18:36;;;;;;;6.18;4.03;;;;;;;;;;10544628;28;20072;-76
2023/06/15 11:23:45;;;;;;;5.30;3.97;;;;;;;;;;10545722;28;20048;-76
2023/06/15 11:28:48;;;;;;;5.80;3.90;;;;;;;;;;10547434;28;20102;-76
2023/06/15 11:33:51;;;;;;;5.65;3.60;;;;;;;;;;10553692;28;20573;-76
2023/06/15 11:38:56;;;;;;;6.13;3.35;;;;;;;;;;10549690;28;20036;-76
2023/06/15 11:43:59;;;;;;;6.15;3.65;;;;;;;;;;10548951;28;20062;-75
2023/06/15 11:49:02;;;;;;;5.82;3.92;;;;;;;;;;10547827;28;20119;-75
2023/06/15 11:54:11;;;;;;;5.22;3.67;;;;;;;;;;10550402;28;20101;-75
2023/06/15 11:59:15;;;;;;;6.80;3.78;;;;;;;;;;10549934;28;20108;-74
2023/06/15 12:04:18;;;;;;;8.55;4.03;;;;;;;;;;10551423;28;20064;-77
2023/06/15 12:09:23;;;;;;;7.35;3.80;;;;;;;;;;10549559;28;20108;-75
2023/06/15 12:14:26;;;;;;;7.45;4.00;;;;;;;;;;10555828;28;20132;-76
2023/06/15 12:19:30;;;;;;;7.07;4.00;;;;;;;;;;10544975;28;20143;-74
2023/06/15 12:24:38;;;;;;;6.00;4.10;;;;;;;;;;10546968;28;20126;-74
2023/06/15 12:29:41;;;;;;;6.55;3.92;;;;;;;;;;10551872;28;20089;-75
2023/06/15 12:34:44;;;;;;;11.50;4.18;;;;;;;;;;10553450;28;20043;-75
2023/06/15 12:39:49;;;;;;;5.40;3.88;;;;;;;;;;10551586;28;20056;-75
2023/06/15 12:44:55;;;;;;;4.57;3.58;;;;;;;;;;10555757;28;20035;-75
2023/06/15 12:49:59;;;;;;;11.30;4.00;;;;;;;;;;10537593;28;20040;-74
2023/06/15 12:55:03;;;;;;;4.88;3.30;;;;;;;;;;10553858;28;20040;-75
2023/06/15 13:00:06;;;;;;;6.63;3.80;;;;;;;;;;10559448;28;20037;-75
2023/06/15 13:05:09;;;;;;;4.35;3.42;;;;;;;;;;10552240;28;20413;-76
2023/06/15 13:10:14;;;;;;;4.93;3.45;;;;;;;;;;10556239;28;20056;-74
2023/06/15 13:15:17;;;;;;;4.90;3.58;;;;;;;;;;10549564;28;20103;-75
2023/06/15 13:20:23;;;;;;;8.15;3.22;;;;;;;;;;10556051;28;20380;-76
2023/06/15 13:25:28;;;;;;;5.57;3.10;;;;;;;;;;10540793;28;20044;-75
2023/06/15 13:30:31;;;;;;;5.13;3.22;;;;;;;;;;10543241;28;20036;-74
2023/06/15 13:35:33;;;;;;;5.30;2.92;;;;;;;;;;10545015;28;20070;-74
2023/06/15 13:40:37;;;;;;;4.05;2.95;;;;;;;;;;10543514;28;20454;-74
2023/06/15 13:45:40;;;;;;;7.57;3.28;;;;;;;;;;10548666;28;20047;-75
2023/06/15 13:50:43;;;;;;;4.32;3.00;;;;;;;;;;10525031;28;20035;-75
2023/06/15 13:55:47;;;;;;;5.03;2.97;;;;;;;;;;10547170;28;20062;-75
2023/06/15 14:00:51;;;;;;;4.13;2.97;;;;;;;;;;10549156;28;20100;-74
2023/06/15 14:05:54;;;;;;;3.17;2.63;;;;;;;;;;10541193;28;20154;-75
2023/06/15 14:10:58;;;;;;;5.00;2.80;;;;;;;;;;10542406;28;20657;-75
2023/06/15 14:16:00;;;;;;;4.60;3.10;;;;;;;;;;10543099;28;20107;-75
2023/06/15 14:21:03;;;;;;;5.05;3.30;;;;;;;;;;10538749;28;21893;-75
2023/06/15 14:26:07;;;;;;;4.30;3.10;;;;;;;;;;10542852;28;20059;-74
2023/06/15 14:31:09;;;;;;;4.63;3.25;;;;;;;;;;10552089;28;20499;-75
2023/06/15 14:36:12;;;;;;;8.18;3.20;;;;;;;;;;10549896;28;20040;-75
2023/06/15 14:41:16;;;;;;;5.70;3.53;;;;;;;;;;10548765;28;20139;-74
2023/06/15 14:46:19;;;;;;;4.50;3.60;;;;;;;;;;10542207;28;20059;-76
2023/06/15 14:51:21;;;;;;;5.28;3.50;;;;;;;;;;10531177;28;20561;-75
2023/06/15 14:56:27;;;;;;;5.13;3.17;;;;;;;;;;10545109;28;20062;-74
2023/06/15 15:01:30;;;;;;;7.38;3.72;;;;;;;;;;10548145;28;20127;-75
2023/06/15 15:06:33;;;;;;;8.35;3.80;;;;;;;;;;10540317;28;20052;-75
2023/06/15 15:11:37;;;;;;;9.07;3.63;;;;;;;;;;10553041;28;20044;-76
2023/06/15 15:16:39;;;;;;;5.60;3.13;;;;;;;;;;10551080;28;20040;-75
2023/06/15 15:21:42;;;;;;;8.50;3.40;;;;;;;;;;10518055;28;20081;-75
2023/06/15 15:26:46;;;;;;;5.68;3.50;;;;;;;;;;10546539;28;20039;-76
2023/06/15 15:31:49;;;;;;;6.85;3.63;;;;;;;;;;10549192;28;20043;-73
2023/06/15 15:36:51;;;;;;;5.10;3.20;;;;;;;;;;10552334;28;20103;-75
2023/06/15 15:41:56;;;;;;;5.43;3.42;;;;;;;;;;10551832;28;20043;-74
2023/06/15 15:46:58;;;;;;;5.13;3.05;;;;;;;;;;10549466;28;20064;-74
2023/06/15 15:52:01;;;;;;;5.57;3.33;;;;;;;;;;10549901;28;20043;-74
2023/06/15 15:57:07;;;;;;;5.72;3.58;;;;;;;;;;10550972;28;20040;-74
2023/06/15 16:02:09;;;;;;;4.25;3.17;;;;;;;;;;10550050;28;20112;-76
2023/06/15 16:07:12;;;;;;;5.10;3.25;;;;;;;;;;10547539;28;20191;-76
2023/06/15 16:12:16;;;;;;;5.28;3.15;;;;;;;;;;10544686;28;20044;-74
2023/06/15 16:17:18;;;;;;;5.75;3.20;;;;;;;;;;10546654;28;20044;-76
2023/06/15 16:22:22;;;;;;;5.10;3.50;;;;;;;;;;10553137;28;20036;-75
2023/06/15 16:27:27;;;;;;;6.35;3.60;;;;;;;;;;10545203;28;20060;-74
2023/06/15 16:32:30;;;;;;;5.15;3.30;;;;;;;;;;10548665;28;20052;-75
2023/06/15 16:37:32;;;;;;;;;;;;;;;;;;10545793;28;20051;-75
2023/06/15 16:42:36;;;;;;;4.30;3.27;;;;;;;;;;10546087;28;19920;-74
2023/06/15 16:47:40;;;;;;;6.25;3.80;;;;;;;;;;10545059;28;20325;-74
2023/06/15 16:52:43;;;;;;;8.30;3.85;;;;;;;;;;10543169;28;20070;-75
2023/06/15 16:57:47;;;;;;;6.95;4.25;;;;;;;;;;10545144;28;20121;-74
2023/06/15 17:02:49;;;;;;;6.00;3.65;;;;;;;;;;10544399;28;20036;-74
2023/06/15 17:07:52;;;;;;;;;;;;;;;;;;10545935;28;20177;-73
2023/06/15 17:12:59;;;;;;;9.63;4.40;;;;;;;;;;10541461;28;19920;-74
2023/06/15 17:18:06;;;;;;;6.72;3.38;;;;;;;;;;10543755;28;20106;-75
2023/06/15 17:23:09;;;;;;;5.90;3.25;;;;;;;;;;10503457;28;20163;-75
2023/06/15 17:28:13;;;;;;;;;;;;;;;;;;10502734;28;20049;-74
2023/06/15 17:33:18;;;;;;;4.82;3.30;;;;;;;;;;10497351;28;19936;-75
2023/06/15 17:38:21;;;;;;;9.60;4.63;;;;;;;;;;10508280;28;20521;-74
2023/06/15 17:43:27;;;;;;;6.90;3.53;;;;;;;;;;10508447;28;20204;-76
2023/06/15 17:48:31;;;;;;;7.25;3.60;;;;;;;;;;10504630;28;20055;-75
2023/06/15 17:53:33;;;;;;;7.00;3.72;;;;;;;;;;10504042;28;20059;-75
2023/06/15 17:58:36;;;;;;;;;;;;;;;;;;10501401;28;20045;-75
2023/06/15 18:03:40;;;;;;;9.02;5.20;;;;;;;;;;10499340;28;20039;-75
2023/06/15 18:08:44;;;;;;;6.00;3.50;;;;;;;;;;10502968;28;20066;-76
2023/06/15 18:13:50;;;;;;;5.50;3.50;;;;;;;;;;10506363;28;20058;-75
2023/06/15 18:18:55;;;;;;;11.40;5.65;;;;;;;;;;10515512;28;20074;-75
2023/06/15 18:23:58;;;;;;;7.50;3.65;;;;;;;;;;10551064;28;20104;-75
2023/06/15 18:29:01;;;;;;;7.80;4.10;;;;;;;;;;10544701;28;20604;-78
2023/06/15 18:34:06;;;;;;;8.48;3.80;;;;;;;;;;10551898;28;20100;-76
2023/06/15 18:39:10;;;;;;;20.27;9.07;;;;;;;;;;10562172;28;20119;-76
2023/06/15 18:44:13;;;;;;;9.15;4.20;;;;;;;;;;10560663;28;20032;-77
2023/06/15 18:49:17;;;;;;;6.38;3.97;;;;;;;;;;10561653;28;20036;-79
2023/06/15 18:54:20;;;;;;;6.55;3.97;;;;;;;;;;10565229;28;20055;-77
2023/06/15 18:59:22;;;;;;;7.10;3.47;;;;;;;;;;10567997;28;20040;-78
2023/06/15 19:04:27;;;;;;;6.35;3.80;;;;;;;;;;10565939;28;20075;-77
2023/06/15 19:09:35;;;;;;;6.18;3.58;;;;;;;;;;10563891;28;20523;-79
2023/06/15 19:14:39;;;;;;;8.80;3.70;;;;;;;;;;10561012;28;20111;-76
2023/06/15 19:19:43;;;;;;;6.68;3.90;;;;;;;;;;10561817;28;20389;-76
2023/06/15 19:24:46;;;;;;;7.10;3.78;;;;;;;;;;10561704;28;20054;-76
2023/06/15 19:29:49;;;;;;;;;;;;;;;;;;10555126;28;20123;-75
2023/06/15 19:34:54;;;;;;;5.85;3.55;;;;;;;;;;10556411;28;19923;-73
2023/06/15 19:39:57;;;;;;;7.38;3.88;;;;;;;;;;10536967;28;20056;-77
2023/06/15 19:45:00;;;;;;;11.63;3.90;;;;;;;;;;10557553;28;20042;-76
2023/06/15 19:50:04;;;;;;;9.87;4.50;;;;;;;;;;10549918;28;20048;-77
2023/06/15 19:55:07;;;;;;;9.60;4.80;;;;;;;;;;10553399;28;20051;-78
2023/06/15 20:00:15;;;;;;;7.40;4.68;;;;;;;;;;10550060;28;20048;-78
2023/06/15 20:05:20;;;;;;;10.82;4.45;;;;;;;;;;10551380;28;20047;-76
2023/06/15 20:10:23;;;;;;;8.63;4.10;;;;;;;;;;10548234;28;20036;-76
2023/06/15 20:15:26;;;;;;;9.57;4.18;;;;;;;;;;10533507;28;20513;-75
2023/06/15 20:20:33;;;;;;;8.13;4.30;;;;;;;;;;10550757;28;20084;-75
2023/06/15 20:25:37;;;;;;;8.77;4.68;;;;;;;;;;10535017;28;20051;-75
2023/06/15 20:30:39;;;;;;;10.57;4.68;;;;;;;;;;10549277;28;20262;-75
2023/06/15 20:35:43;;;;;;;9.93;4.53;;;;;;;;;;10553472;28;20047;-74
2023/06/15 20:40:46;;;;;;;6.82;4.32;;;;;;;;;;10550028;28;20135;-75
2023/06/15 20:45:49;;;;;;;6.90;3.70;;;;;;;;;;10557286;28;20115;-74
2023/06/15 20:50:54;;;;;;;7.60;3.80;;;;;;;;;;10537463;28;20127;-75
2023/06/15 20:55:57;;;;;;;7.88;3.92;;;;;;;;;;10554593;28;20775;-76
2023/06/15 21:01:00;;;;;;;12.40;4.87;;;;;;;;;;10551174;28;20121;-73
2023/06/15 21:06:04;;;;;;;9.98;4.72;;;;;;;;;;10553238;28;20043;-75
2023/06/15 21:11:07;;;;;;;23.65;9.80;;;;;;;;;;10533031;28;20050;-76
2023/06/15 21:16:09;;;;;;;7.67;3.73;;;;;;;;;;10544508;28;20517;-75
2023/06/15 21:21:14;;;;;;;8.67;3.73;;;;;;;;;;10548928;28;20052;-75
2023/06/15 21:26:17;;;;;;;7.47;3.85;;;;;;;;;;10546267;28;20047;-77
2023/06/15 21:31:20;;;;;;;5.85;3.20;;;;;;;;;;10552528;28;20090;-76
2023/06/15 21:36:24;;;;;;;7.15;3.28;;;;;;;;;;10547626;28;20132;-76
2023/06/15 21:41:29;;;;;;;7.93;3.60;;;;;;;;;;10546063;28;20103;-75
2023/06/15 21:46:33;;;;;;;10.15;3.47;;;;;;;;;;10550818;28;20071;-74
2023/06/15 21:51:37;;;;;;;11.45;3.35;;;;;;;;;;10546308;28;20047;-76
2023/06/15 21:56:39;;;;;;;5.60;3.38;;;;;;;;;;10548715;28;20413;-76
2023/06/15 22:01:42;;;;;;;7.57;3.67;;;;;;;;;;10549209;28;20647;-76
2023/06/15 22:06:46;;;;;;;5.07;2.78;;;;;;;;;;10546498;28;20056;-75
2023/06/15 22:11:51;;;;;;;8.15;3.15;;;;;;;;;;10546056;28;20492;-75
2023/06/15 22:16:55;;;;;;;7.82;3.38;;;;;;;;;;10548300;28;20051;-75
2023/06/15 22:22:00;;;;;;;6.57;3.20;;;;;;;;;;10547381;28;20111;-75
2023/06/15 22:27:06;;;;;;;6.25;3.35;;;;;;;;;;10556075;28;20060;-75
2023/06/15 22:32:09;;;;;;;9.73;3.60;;;;;;;;;;10551419;28;20067;-75
2023/06/15 22:37:13;;;;;;;5.17;3.30;;;;;;;;;;10546427;28;20048;-75
2023/06/15 22:42:15;;;;;;;5.88;3.28;;;;;;;;;;10554831;28;20055;-76
2023/06/15 22:47:18;;;;;;;9.52;3.60;;;;;;;;;;10547132;28;20133;-75
2023/06/15 22:52:24;;;;;;;8.00;3.75;;;;;;;;;;10551831;28;20047;-75
2023/06/15 22:57:26;;;;;;;7.90;3.53;;;;;;;;;;10552221;28;20074;-75
2023/06/15 23:02:29;;;;;;;9.15;3.55;;;;;;;;;;10543922;28;20099;-75
2023/06/15 23:07:42;;;;;;;7.72;3.33;;;;;;;;;;10551829;28;20051;-75
2023/06/15 23:12:50;;;;;;;5.95;3.47;;;;;;;;;;10552338;28;20051;-78
2023/06/15 23:17:56;;;;;;;7.40;3.67;;;;;;;;;;10547036;28;20143;-75
2023/06/15 23:23:00;;;;;;;7.07;3.80;;;;;;;;;;10556298;28;20040;-74
2023/06/15 23:28:06;;;;;;;5.65;3.10;;;;;;;;;;10555338;28;20090;-76
2023/06/15 23:33:08;;;;;;;8.85;3.42;;;;;;;;;;10560066;28;20063;-76
2023/06/15 23:38:12;;;;;;;7.47;3.38;;;;;;;;;;10554449;28;20082;-76
2023/06/15 23:43:15;;;;;;;5.75;3.20;;;;;;;;;;10556206;28;20132;-74
2023/06/15 23:48:17;;;;;;;8.68;3.63;;;;;;;;;;10537461;28;20043;-75
2023/06/15 23:53:21;;;;;;;10.63;2.97;;;;;;;;;;10551715;28;20062;-75
2023/06/15 23:58:24;;;;;;;7.50;3.47;;;;;;;;;;10531553;28;20101;-75
